createdAt,value
2019-03-17T00:01:08.410Z,67.40
2019-03-17T00:03:38.878Z,67.40
2019-03-17T00:06:09.340Z,67.50
2019-03-17T00:08:39.779Z,67.40
2019-03-17T00:11:10.528Z,67.60
2019-03-17T00:13:40.973Z,67.80
2019-03-17T00:16:11.753Z,67.70
2019-03-17T00:18:42.233Z,67.70
2019-03-17T00:21:12.721Z,67.90
2019-03-17T00:23:43.272Z,67.90
2019-03-17T00:26:13.734Z,68.10
2019-03-17T00:28:44.485Z,68.20
2019-03-17T00:31:23.659Z,68.30
2019-03-17T00:33:47.261Z,68.60
2019-03-17T00:36:17.739Z,68.80
2019-03-17T00:38:48.195Z,69.10
2019-03-17T00:41:18.656Z,69.10
2019-03-17T00:43:49.410Z,69.10
2019-03-17T00:46:19.948Z,70.30
2019-03-17T00:48:50.399Z,69.80
2019-03-17T00:51:20.866Z,69.90
2019-03-17T00:53:51.316Z,69.80
2019-03-17T00:56:21.776Z,69.90
2019-03-17T00:58:52.352Z,69.80
2019-03-17T01:01:22.798Z,69.80
2019-03-17T01:03:53.245Z,69.70
2019-03-17T01:06:23.750Z,70.00
2019-03-17T01:08:54.325Z,69.80
2019-03-17T01:11:24.920Z,69.90
2019-03-17T01:13:55.808Z,69.80
2019-03-17T01:16:26.386Z,69.50
2019-03-17T01:18:56.887Z,69.40
2019-03-17T01:21:29.128Z,69.60
2019-03-17T01:23:59.781Z,69.20
2019-03-17T01:26:30.494Z,69.30
2019-03-17T01:29:01.004Z,69.40
2019-03-17T01:31:31.596Z,69.20
2019-03-17T01:34:02.111Z,69.10
2019-03-17T01:36:32.942Z,69.20
2019-03-17T01:39:05.963Z,69.40
2019-03-17T01:41:36.865Z,69.80
2019-03-17T01:44:07.306Z,70.10
2019-03-17T01:46:37.742Z,70.20
2019-03-17T01:49:08.189Z,70.50
2019-03-17T01:51:38.633Z,70.70
2019-03-17T01:54:09.402Z,70.70
2019-03-17T01:56:40.164Z,70.80
2019-03-17T01:59:11.072Z,70.90
2019-03-17T02:01:41.523Z,71.00
2019-03-17T02:04:11.973Z,70.70
2019-03-17T02:06:42.397Z,70.80
2019-03-17T02:09:12.869Z,70.70
2019-03-17T02:11:43.371Z,70.70
2019-03-17T02:14:14.162Z,70.90
2019-03-17T02:16:44.624Z,71.00
2019-03-17T02:19:16.140Z,71.60
2019-03-17T02:21:46.613Z,71.20
2019-03-17T02:24:17.536Z,71.00
2019-03-17T02:26:47.988Z,71.20
2019-03-17T02:29:18.588Z,70.50
2019-03-17T02:31:49.031Z,70.40
2019-03-17T02:34:19.851Z,69.80
2019-03-17T02:36:50.304Z,69.80
2019-03-17T02:39:20.725Z,69.70
2019-03-17T02:41:51.202Z,69.40
2019-03-17T02:44:21.641Z,69.60
2019-03-17T02:46:52.105Z,69.50
2019-03-17T02:49:22.563Z,69.70
2019-03-17T02:51:53.031Z,69.70
2019-03-17T02:54:23.719Z,69.80
2019-03-17T02:56:54.167Z,69.80
2019-03-17T02:59:24.597Z,70.10
2019-03-17T03:01:55.044Z,70.20
2019-03-17T03:04:25.822Z,70.40
2019-03-17T03:06:56.380Z,70.20
2019-03-17T03:09:26.800Z,70.30
2019-03-17T03:11:57.336Z,70.50
2019-03-17T03:14:27.798Z,70.40
2019-03-17T03:16:58.729Z,70.80
2019-03-17T03:19:29.250Z,70.70
2019-03-17T03:21:59.768Z,70.70
2019-03-17T03:24:30.221Z,70.80
2019-03-17T03:27:00.662Z,71.70
2019-03-17T03:29:31.123Z,70.90
2019-03-17T03:32:01.577Z,71.10
2019-03-17T03:34:32.010Z,71.30
2019-03-17T03:37:02.430Z,71.20
2019-03-17T03:39:32.886Z,71.30
2019-03-17T03:42:03.796Z,71.00
2019-03-17T03:44:34.233Z,71.10
2019-03-17T03:47:04.742Z,71.50
2019-03-17T03:49:35.197Z,71.50
2019-03-17T03:52:05.634Z,71.70
2019-03-17T03:54:36.185Z,71.70
2019-03-17T03:57:06.925Z,71.80
2019-03-17T03:59:37.386Z,72.00
2019-03-17T04:02:07.921Z,71.80
2019-03-17T04:04:38.459Z,71.80
2019-03-17T04:07:08.879Z,71.70
2019-03-17T04:09:39.312Z,71.80
2019-03-17T04:12:10.107Z,71.70
2019-03-17T04:14:40.638Z,71.70
2019-03-17T04:17:11.068Z,71.60
2019-03-17T04:19:41.786Z,71.50
2019-03-17T04:22:12.546Z,71.60
2019-03-17T04:24:43.351Z,71.60
2019-03-17T04:27:13.790Z,71.80
2019-03-17T04:29:44.213Z,71.70
2019-03-17T04:32:14.641Z,71.10
2019-03-17T04:34:45.506Z,70.90
2019-03-17T04:37:15.942Z,70.30
2019-03-17T04:39:46.434Z,70.10
2019-03-17T04:42:16.913Z,69.90
2019-03-17T04:44:47.517Z,69.80
2019-03-17T04:47:17.954Z,69.80
2019-03-17T04:49:48.397Z,69.40
2019-03-17T04:52:18.854Z,69.80
2019-03-17T04:54:49.939Z,69.70
2019-03-17T04:57:20.369Z,69.50
2019-03-17T04:59:50.833Z,69.40
2019-03-17T05:02:21.341Z,69.40
2019-03-17T05:04:51.891Z,68.90
2019-03-17T05:07:22.563Z,69.00
2019-03-17T05:09:53.132Z,68.90
2019-03-17T05:12:23.783Z,68.60
2019-03-17T05:14:54.237Z,68.70
2019-03-17T05:17:25.772Z,69.00
2019-03-17T05:19:56.306Z,69.10
2019-03-17T05:22:26.748Z,68.70
2019-03-17T05:24:57.247Z,69.20
2019-03-17T05:27:27.953Z,69.30
2019-03-17T05:29:58.374Z,69.20
2019-03-17T05:32:29.196Z,70.30
2019-03-17T05:34:59.922Z,69.70
2019-03-17T05:37:30.648Z,70.30
2019-03-17T05:40:01.083Z,70.20
2019-03-17T05:42:31.782Z,70.30
2019-03-17T05:45:02.245Z,70.00
2019-03-17T05:47:32.805Z,70.00
2019-03-17T05:50:03.280Z,69.90
2019-03-17T05:52:33.737Z,70.10
2019-03-17T05:55:04.198Z,70.50
2019-03-17T05:57:34.637Z,70.50
2019-03-17T06:00:05.780Z,70.10
2019-03-17T06:02:36.259Z,70.20
2019-03-17T06:05:07.665Z,70.00
2019-03-17T06:07:38.081Z,70.60
2019-03-17T06:10:08.621Z,70.90
2019-03-17T06:12:39.059Z,71.10
2019-03-17T06:15:10.193Z,71.20
2019-03-17T06:17:40.917Z,71.20
2019-03-17T06:20:11.597Z,71.40
2019-03-17T06:22:42.028Z,71.40
2019-03-17T06:25:13.441Z,71.60
2019-03-17T06:27:43.893Z,71.80
2019-03-17T06:30:14.378Z,71.80
2019-03-17T06:32:44.833Z,71.60
2019-03-17T06:35:15.280Z,72.00
2019-03-17T06:37:45.753Z,72.10
2019-03-17T06:40:16.292Z,72.00
2019-03-17T06:42:46.741Z,71.90
2019-03-17T06:45:17.196Z,71.70
2019-03-17T06:47:47.625Z,71.70
2019-03-17T06:50:18.140Z,72.00
2019-03-17T06:52:48.602Z,71.90
2019-03-17T06:55:19.161Z,71.80
2019-03-17T06:57:49.684Z,71.80
2019-03-17T07:00:20.157Z,71.70
2019-03-17T07:02:50.729Z,72.40
2019-03-17T07:05:21.185Z,71.70
2019-03-17T07:07:51.664Z,71.30
2019-03-17T07:10:22.156Z,71.30
2019-03-17T07:12:52.573Z,71.00
2019-03-17T07:15:23.106Z,71.30
2019-03-17T07:17:54.140Z,71.10
2019-03-17T07:20:24.627Z,70.70
2019-03-17T07:22:55.076Z,70.20
2019-03-17T07:25:25.540Z,70.00
2019-03-17T07:28:01.119Z,69.20
2019-03-17T07:30:31.951Z,68.60
2019-03-17T07:33:02.542Z,68.20
2019-03-17T07:35:33.033Z,67.40
2019-03-17T07:38:03.505Z,67.00
2019-03-17T07:40:33.945Z,66.50
2019-03-17T07:43:04.384Z,65.90
2019-03-17T07:45:34.816Z,64.90
2019-03-17T07:48:05.273Z,63.90
2019-03-17T07:50:35.728Z,63.50
2019-03-17T07:53:06.481Z,63.40
2019-03-17T07:55:37.485Z,62.10
2019-03-17T07:58:07.968Z,61.40
2019-03-17T08:00:38.417Z,61.10
2019-03-17T08:03:08.871Z,60.30
2019-03-17T08:05:39.953Z,60.20
2019-03-17T08:08:10.424Z,59.40
2019-03-17T08:10:40.868Z,58.90
2019-03-17T08:13:11.334Z,58.40
2019-03-17T08:15:42.218Z,56.50
2019-03-17T08:18:12.684Z,57.10
2019-03-17T08:20:43.330Z,56.90
2019-03-17T08:23:13.778Z,56.30
2019-03-17T08:25:44.251Z,56.00
2019-03-17T08:28:14.685Z,55.10
2019-03-17T08:30:53.092Z,54.90
2019-03-17T08:33:17.910Z,55.10
2019-03-17T08:35:48.344Z,55.30
2019-03-17T08:38:22.165Z,54.70
2019-03-17T08:40:51.229Z,54.30
2019-03-17T08:43:22.526Z,54.10
2019-03-17T08:45:52.985Z,54.00
2019-03-17T08:48:23.457Z,53.80
2019-03-17T08:50:53.921Z,52.90
2019-03-17T08:53:23.365Z,53.10
2019-03-17T08:55:52.772Z,53.10
2019-03-17T08:58:22.062Z,53.00
2019-03-17T09:00:51.305Z,53.00
2019-03-17T09:03:21.880Z,53.10
2019-03-17T09:05:51.318Z,52.80
2019-03-17T09:08:20.556Z,52.70
2019-03-17T09:10:49.823Z,52.70
2019-03-17T09:13:19.097Z,53.10
2019-03-17T09:15:48.357Z,53.20
2019-03-17T09:18:17.777Z,53.20
2019-03-17T09:20:47.161Z,52.80
2019-03-17T09:23:16.786Z,51.10
2019-03-17T09:25:46.114Z,50.80
2019-03-17T09:28:15.589Z,51.20
2019-03-17T09:30:44.856Z,51.00
2019-03-17T09:33:14.115Z,52.00
2019-03-17T09:35:43.407Z,50.30
2019-03-17T09:38:12.746Z,49.90
2019-03-17T09:40:42.021Z,50.20
2019-03-17T09:43:11.313Z,49.90
2019-03-17T09:45:40.577Z,50.50
2019-03-17T09:48:09.888Z,50.60
2019-03-17T09:50:39.164Z,50.30
2019-03-17T09:53:08.401Z,50.60
2019-03-17T09:55:37.750Z,50.20
2019-03-17T09:58:07.101Z,50.70
2019-03-17T10:00:36.392Z,50.90
2019-03-17T10:03:05.668Z,51.00
2019-03-17T10:05:34.936Z,51.30
2019-03-17T10:08:04.557Z,51.60
2019-03-17T10:10:33.815Z,51.50
2019-03-17T10:13:04.136Z,51.90
2019-03-17T10:15:33.497Z,52.60
2019-03-17T10:18:02.828Z,53.30
2019-03-17T10:20:32.083Z,53.90
2019-03-17T10:23:01.343Z,54.30
2019-03-17T10:25:30.614Z,54.50
2019-03-17T10:28:00.859Z,54.50
2019-03-17T10:30:30.172Z,53.80
2019-03-17T10:32:59.510Z,54.30
2019-03-17T10:35:28.769Z,54.80
2019-03-17T10:37:58.040Z,55.10
2019-03-17T10:40:27.301Z,55.50
2019-03-17T10:42:56.597Z,55.70
2019-03-17T10:45:25.872Z,55.40
2019-03-17T10:47:56.233Z,54.70
2019-03-17T10:50:25.512Z,54.90
2019-03-17T10:52:54.796Z,54.50
2019-03-17T10:55:24.430Z,53.40
2019-03-17T10:57:54.047Z,53.10
2019-03-17T11:00:23.322Z,53.40
2019-03-17T11:02:52.697Z,51.80
2019-03-17T11:05:22.047Z,50.20
2019-03-17T11:07:51.516Z,49.50
2019-03-17T11:10:20.855Z,48.90
2019-03-17T11:12:50.168Z,48.60
2019-03-17T11:15:19.469Z,47.50
2019-03-17T11:17:48.860Z,47.00
2019-03-17T11:20:18.272Z,47.40
2019-03-17T11:22:47.545Z,46.70
2019-03-17T11:25:16.838Z,46.60
2019-03-17T11:27:46.387Z,46.70
2019-03-17T11:30:15.905Z,46.70
2019-03-17T11:32:45.444Z,45.70
2019-03-17T11:35:14.816Z,45.40
2019-03-17T11:37:44.256Z,45.50
2019-03-17T11:40:13.619Z,45.50
2019-03-17T11:42:43.995Z,46.40
2019-03-17T11:45:13.330Z,46.10
2019-03-17T11:47:42.720Z,46.30
2019-03-17T11:50:13.174Z,47.00
2019-03-17T11:52:42.557Z,47.50
2019-03-17T11:55:11.878Z,47.30
2019-03-17T11:57:41.353Z,46.90
2019-03-17T12:00:11.766Z,47.20
2019-03-17T12:02:41.036Z,47.30
2019-03-17T12:05:10.376Z,47.00
2019-03-17T12:07:39.739Z,47.10
2019-03-17T12:10:10.278Z,47.20
2019-03-17T12:12:39.551Z,47.50
2019-03-17T12:15:09.875Z,46.80
2019-03-17T12:17:39.286Z,47.50
2019-03-17T12:20:10.004Z,47.40
2019-03-17T12:22:39.293Z,47.00
2019-03-17T12:25:11.632Z,46.70
2019-03-17T12:27:41.445Z,46.60
2019-03-17T12:30:28.708Z,46.10
2019-03-17T12:32:58.077Z,46.90
2019-03-17T12:35:35.265Z,47.20
2019-03-17T12:38:04.824Z,46.80
2019-03-17T12:40:34.176Z,47.50
2019-03-17T12:43:03.544Z,47.80
2019-03-17T12:45:33.025Z,47.40
2019-03-17T12:48:02.297Z,47.50
2019-03-17T12:50:31.616Z,47.70
2019-03-17T12:53:00.927Z,48.40
2019-03-17T12:55:30.231Z,47.90
2019-03-17T12:57:59.625Z,48.10
2019-03-17T13:00:28.938Z,47.80
2019-03-17T13:02:58.246Z,48.30
2019-03-17T13:05:27.497Z,48.30
2019-03-17T13:07:56.803Z,48.10
2019-03-17T13:10:26.057Z,48.20
2019-03-17T13:12:55.333Z,47.40
2019-03-17T13:15:24.637Z,48.40
2019-03-17T13:17:53.928Z,47.60
2019-03-17T13:20:23.202Z,47.20
2019-03-17T13:22:52.605Z,47.40
2019-03-17T13:25:21.966Z,47.30
2019-03-17T13:27:51.605Z,46.90
2019-03-17T13:30:20.902Z,45.90
2019-03-17T13:32:50.208Z,45.50
2019-03-17T13:35:19.606Z,45.10
2019-03-17T13:37:48.871Z,45.30
2019-03-17T13:40:28.788Z,45.30
2019-03-17T13:42:51.545Z,45.70
2019-03-17T13:45:20.837Z,45.60
2019-03-17T13:47:52.826Z,45.80
2019-03-17T13:50:21.088Z,45.90
2019-03-17T13:52:50.772Z,46.20
2019-03-17T13:55:20.074Z,46.60
2019-03-17T13:57:50.188Z,47.60
2019-03-17T14:00:19.961Z,50.10
2019-03-17T14:02:49.632Z,51.30
2019-03-17T14:05:19.069Z,52.60
2019-03-17T14:07:48.344Z,53.10
2019-03-17T14:10:17.909Z,54.20
2019-03-17T14:12:47.209Z,54.00
2019-03-17T14:15:16.497Z,54.60
2019-03-17T14:17:45.948Z,54.90
2019-03-17T14:20:15.961Z,54.90
2019-03-17T14:22:45.609Z,55.30
2019-03-17T14:25:16.245Z,55.00
2019-03-17T14:27:45.513Z,54.90
2019-03-17T14:30:15.094Z,55.30
2019-03-17T14:32:44.434Z,56.10
2019-03-17T14:35:13.699Z,56.40
2019-03-17T14:37:43.188Z,57.20
2019-03-17T14:40:12.936Z,58.10
2019-03-17T14:42:42.356Z,58.40
2019-03-17T14:45:12.034Z,59.10
2019-03-17T14:47:41.532Z,59.70
2019-03-17T14:50:12.177Z,60.40
2019-03-17T14:52:41.553Z,60.90
2019-03-17T14:55:11.260Z,62.10
2019-03-17T14:57:40.541Z,63.00
2019-03-17T15:00:11.386Z,64.20
2019-03-17T15:02:40.646Z,65.20
2019-03-17T15:05:10.205Z,66.30
2019-03-17T15:07:39.546Z,65.90
2019-03-17T15:10:10.366Z,65.50
2019-03-17T15:12:39.677Z,65.70
2019-03-17T15:15:10.298Z,66.30
2019-03-17T15:17:39.752Z,66.80
2019-03-17T15:20:10.301Z,66.90
2019-03-17T15:22:40.560Z,66.80
2019-03-17T15:25:09.974Z,67.50
2019-03-17T15:27:41.654Z,67.80
2019-03-17T15:30:14.465Z,67.20
2019-03-17T15:32:44.130Z,67.90
2019-03-17T15:35:13.501Z,67.60
2019-03-17T15:37:42.867Z,67.90
2019-03-17T15:40:12.281Z,68.30
2019-03-17T15:42:42.047Z,68.90
2019-03-17T15:45:12.237Z,69.50
2019-03-17T15:47:42.653Z,69.50
2019-03-17T15:50:12.665Z,69.80
2019-03-17T15:52:41.961Z,70.20
2019-03-17T15:55:11.490Z,70.80
2019-03-17T15:57:40.908Z,71.70
2019-03-17T16:00:23.652Z,72.20
2019-03-17T16:02:42.981Z,72.50
2019-03-17T16:05:12.336Z,72.80
2019-03-17T16:07:42.771Z,73.50
2019-03-17T16:10:13.361Z,74.50
2019-03-17T16:12:42.686Z,75.00
2019-03-17T16:15:12.218Z,75.50
2019-03-17T16:17:41.594Z,76.00
2019-03-17T16:20:12.007Z,76.70
2019-03-17T16:22:41.361Z,77.00
2019-03-17T16:25:11.039Z,77.60
2019-03-17T16:27:40.338Z,78.40
2019-03-17T16:30:13.797Z,78.80
2019-03-17T16:32:44.402Z,79.00
2019-03-17T16:35:14.910Z,79.40
2019-03-17T16:37:45.471Z,80.30
2019-03-17T16:40:18.052Z,80.60
2019-03-17T16:42:48.567Z,82.00
2019-03-17T16:45:19.269Z,82.90
2019-03-17T16:47:49.797Z,83.50
2019-03-17T16:50:20.830Z,83.80
2019-03-17T16:52:51.418Z,84.40
2019-03-17T16:55:22.172Z,85.00
2019-03-17T16:57:52.866Z,85.00
2019-03-17T17:00:23.445Z,85.50
2019-03-17T17:02:53.932Z,86.00
2019-03-17T17:05:31.342Z,86.40
2019-03-17T17:08:02.207Z,86.80
2019-03-17T17:10:32.778Z,87.00
2019-03-17T17:13:03.302Z,87.00
2019-03-17T17:15:33.837Z,87.40
2019-03-17T17:18:04.416Z,87.20
2019-03-17T17:20:35.128Z,87.70
2019-03-17T17:23:05.741Z,87.50
2019-03-17T17:25:36.522Z,87.30
2019-03-17T17:28:08.077Z,87.90
2019-03-17T17:30:38.551Z,87.80
2019-03-17T17:33:09.113Z,87.60
2019-03-17T17:35:39.549Z,88.40
2019-03-17T17:38:10.016Z,88.10
2019-03-17T17:40:40.509Z,89.10
2019-03-17T17:43:11.280Z,88.20
2019-03-17T17:45:41.788Z,88.70
2019-03-17T17:48:12.265Z,89.00
2019-03-17T17:50:42.940Z,88.10
2019-03-17T17:53:13.405Z,87.70
2019-03-17T17:55:43.980Z,87.00
2019-03-17T17:58:14.928Z,87.50
2019-03-17T18:00:46.037Z,87.60
2019-03-17T18:03:16.505Z,87.20
2019-03-17T18:05:47.025Z,87.80
2019-03-17T18:08:17.793Z,87.70
2019-03-17T18:10:48.275Z,87.30
2019-03-17T18:13:18.855Z,87.50
2019-03-17T18:15:49.650Z,87.90
2019-03-17T18:18:20.699Z,87.20
2019-03-17T18:20:51.549Z,87.70
2019-03-17T18:23:22.640Z,87.60
2019-03-17T18:25:53.633Z,87.30
2019-03-17T18:28:24.384Z,87.20
2019-03-17T18:30:54.842Z,86.50
2019-03-17T18:33:26.302Z,86.40
2019-03-17T18:35:57.211Z,86.70
2019-03-17T18:38:28.715Z,86.60
2019-03-17T18:40:59.315Z,87.10
2019-03-17T18:43:30.027Z,86.90
2019-03-17T18:46:00.526Z,86.90
2019-03-17T18:48:32.000Z,86.20
2019-03-17T18:51:02.793Z,86.20
2019-03-17T18:53:33.307Z,86.80
2019-03-17T18:56:03.813Z,86.90
2019-03-17T18:58:36.005Z,86.60
2019-03-17T19:01:06.501Z,86.70
2019-03-17T19:03:37.047Z,86.70
2019-03-17T19:06:07.483Z,86.50
2019-03-17T19:08:38.094Z,87.00
2019-03-17T19:11:08.646Z,87.00
2019-03-17T19:13:39.192Z,87.60
2019-03-17T19:16:09.669Z,87.70
2019-03-17T19:18:40.213Z,87.70
2019-03-17T19:21:10.780Z,87.60
2019-03-17T19:23:41.320Z,87.60
2019-03-17T19:26:11.961Z,87.40
2019-03-17T19:28:43.130Z,87.60
2019-03-17T19:31:13.620Z,87.60
2019-03-17T19:33:44.207Z,87.40
2019-03-17T19:36:15.104Z,87.50
2019-03-17T19:38:45.580Z,87.20
2019-03-17T19:41:16.050Z,87.20
2019-03-17T19:43:46.872Z,87.60
2019-03-17T19:46:18.667Z,87.30
2019-03-17T19:48:49.668Z,87.10
2019-03-17T19:51:20.210Z,87.40
2019-03-17T19:53:50.753Z,87.00
2019-03-17T19:56:21.202Z,87.10
2019-03-17T19:58:51.748Z,87.00
2019-03-17T20:01:22.241Z,86.50
2019-03-17T20:03:53.142Z,86.60
2019-03-17T20:06:24.304Z,87.20
2019-03-17T20:08:54.757Z,86.20
2019-03-17T20:11:25.868Z,86.20
2019-03-17T20:13:56.525Z,86.80
2019-03-17T20:16:27.097Z,86.00
2019-03-17T20:18:57.568Z,86.20
2019-03-17T20:21:28.052Z,85.50
2019-03-17T20:23:58.990Z,85.50
2019-03-17T20:26:30.969Z,85.20
2019-03-17T20:29:01.863Z,84.50
2019-03-17T20:31:32.360Z,84.50
2019-03-17T20:34:02.863Z,84.40
2019-03-17T20:36:33.705Z,84.50
2019-03-17T20:39:05.431Z,84.30
2019-03-17T20:41:35.919Z,84.30
2019-03-17T20:44:06.500Z,83.70
2019-03-17T20:46:37.418Z,83.30
2019-03-17T20:49:08.028Z,84.20
2019-03-17T20:51:38.917Z,83.00
2019-03-17T20:54:09.604Z,83.30
2019-03-17T20:56:40.324Z,83.60
2019-03-17T20:59:10.925Z,82.90
2019-03-17T21:01:41.415Z,82.70
2019-03-17T21:04:12.674Z,83.00
2019-03-17T21:06:43.474Z,83.00
2019-03-17T21:09:13.989Z,83.10
2019-03-17T21:11:44.905Z,82.90
2019-03-17T21:14:15.746Z,82.90
2019-03-17T21:16:46.212Z,82.60
2019-03-17T21:19:16.745Z,82.90
2019-03-17T21:21:47.202Z,82.90
2019-03-17T21:24:17.673Z,83.00
2019-03-17T21:26:48.610Z,83.40
2019-03-17T21:29:19.148Z,83.10
2019-03-17T21:31:49.958Z,83.20
2019-03-17T21:34:20.496Z,83.10
2019-03-17T21:36:51.431Z,83.40
2019-03-17T21:39:21.869Z,83.20
2019-03-17T21:41:52.320Z,83.20
2019-03-17T21:44:23.456Z,82.90
2019-03-17T21:46:54.901Z,82.70
2019-03-17T21:49:25.493Z,82.70
2019-03-17T21:51:55.914Z,82.70
2019-03-17T21:54:26.368Z,83.20
2019-03-17T21:56:56.938Z,83.50
2019-03-17T21:59:27.714Z,83.50
2019-03-17T22:01:58.389Z,83.10
2019-03-17T22:04:29.860Z,83.30
2019-03-17T22:07:00.397Z,83.60
2019-03-17T22:09:31.486Z,84.60
2019-03-17T22:12:01.957Z,83.80
2019-03-17T22:14:32.511Z,83.80
2019-03-17T22:17:02.935Z,83.90
2019-03-17T22:19:33.389Z,83.90
2019-03-17T22:22:04.922Z,83.70
2019-03-17T22:24:35.341Z,83.50
2019-03-17T22:27:05.840Z,83.60
2019-03-17T22:29:36.676Z,84.10
2019-03-17T22:32:07.232Z,83.90
2019-03-17T22:34:37.787Z,83.60
2019-03-17T22:37:08.235Z,83.50
2019-03-17T22:39:38.688Z,83.90
2019-03-17T22:42:09.223Z,83.60
2019-03-17T22:44:39.682Z,83.50
2019-03-17T22:47:10.184Z,83.30
2019-03-17T22:49:40.677Z,83.30
2019-03-17T22:52:11.199Z,83.20
2019-03-17T22:54:41.708Z,83.60
2019-03-17T22:57:13.242Z,83.90
2019-03-17T22:59:43.797Z,83.80
2019-03-17T23:02:14.286Z,84.00
2019-03-17T23:04:44.763Z,83.90
2019-03-17T23:07:15.525Z,84.10
2019-03-17T23:09:46.075Z,84.60
2019-03-17T23:12:16.620Z,83.90
2019-03-17T23:14:47.196Z,83.90
2019-03-17T23:17:17.636Z,83.90
2019-03-17T23:19:48.539Z,84.00
2019-03-17T23:22:19.094Z,83.90
2019-03-17T23:24:50.079Z,84.20
2019-03-17T23:27:20.564Z,83.90
2019-03-17T23:29:51.417Z,84.10
2019-03-17T23:32:21.861Z,84.20
2019-03-17T23:34:52.308Z,84.60
2019-03-17T23:37:22.782Z,84.60
2019-03-17T23:39:53.238Z,84.40
2019-03-17T23:42:23.670Z,83.90
2019-03-17T23:44:54.151Z,84.10
2019-03-17T23:47:24.579Z,83.60
2019-03-17T23:49:55.045Z,83.60
2019-03-17T23:52:25.492Z,83.50
2019-03-17T23:54:56.421Z,83.50
2019-03-17T23:57:26.851Z,84.40
2019-03-17T23:59:57.285Z,83.50
